createdAt,value
2023-01-22T00:00:33.872Z,103421.13
2023-01-22T00:03:00.443Z,103430.34
2023-01-22T00:05:26.869Z,103432.84
2023-01-22T00:07:53.371Z,103432.72
2023-01-22T00:10:20.051Z,103429.28
2023-01-22T00:12:46.746Z,103431.03
2023-01-22T00:15:13.109Z,103432.03
2023-01-22T00:17:39.459Z,103431.22
2023-01-22T00:20:06.911Z,103429.53
2023-01-22T00:22:33.374Z,103421.81
2023-01-22T00:24:59.733Z,103423.75
2023-01-22T00:27:26.107Z,103412.31
2023-01-22T00:29:52.509Z,103411.59
2023-01-22T00:32:19.083Z,103413.53
2023-01-22T00:34:52.089Z,103409.28
2023-01-22T00:37:18.756Z,103405.97
2023-01-22T00:39:45.108Z,103397.41
2023-01-22T00:42:11.559Z,103401.00
2023-01-22T00:44:38.008Z,103375.09
2023-01-22T00:47:04.456Z,103397.03
2023-01-22T00:49:30.868Z,103396.34
2023-01-22T00:51:57.235Z,103399.09
2023-01-22T00:54:23.645Z,103402.78
2023-01-22T00:56:50.011Z,103396.06
2023-01-22T00:59:16.528Z,103397.97
2023-01-22T01:01:43.111Z,103399.06
2023-01-22T01:04:09.637Z,103403.63
2023-01-22T01:06:36.057Z,103399.50
2023-01-22T01:09:02.553Z,103399.63
2023-01-22T01:11:29.693Z,103397.28
2023-01-22T01:13:56.152Z,103401.81
2023-01-22T01:16:29.603Z,103400.44
2023-01-22T01:18:58.529Z,103404.31
2023-01-22T01:21:25.013Z,103401.69
2023-01-22T01:23:51.537Z,103394.22
2023-01-22T01:26:17.954Z,103387.50
2023-01-22T01:28:45.372Z,103383.34
2023-01-22T01:31:14.873Z,103382.09
2023-01-22T01:33:41.632Z,103365.69
2023-01-22T01:36:12.601Z,103369.69
2023-01-22T01:38:39.031Z,103366.94
2023-01-22T01:41:06.196Z,103357.84
2023-01-22T01:43:32.760Z,103370.94
2023-01-22T01:46:00.411Z,103364.16
2023-01-22T01:48:26.874Z,103367.88
2023-01-22T01:51:03.783Z,103373.75
2023-01-22T01:53:30.449Z,103376.09
2023-01-22T01:55:57.608Z,103364.13
2023-01-22T01:58:25.737Z,103362.59
2023-01-22T02:00:56.062Z,103364.78
2023-01-22T02:03:22.577Z,103354.72
2023-01-22T02:05:48.988Z,103366.44
2023-01-22T02:08:15.479Z,103340.53
2023-01-22T02:10:42.300Z,103368.34
2023-01-22T02:13:12.573Z,103356.66
2023-01-22T02:15:39.661Z,103363.25
2023-01-22T02:18:06.235Z,103363.53
2023-01-22T02:20:40.059Z,103355.38
2023-01-22T02:23:06.672Z,103359.13
2023-01-22T02:25:36.117Z,103357.34
2023-01-22T02:28:02.530Z,103348.66
2023-01-22T02:30:28.919Z,103350.47
2023-01-22T02:32:55.371Z,103351.28
2023-01-22T02:35:21.852Z,103348.66
2023-01-22T02:37:48.337Z,103347.00
2023-01-22T02:40:14.842Z,103351.28
2023-01-22T02:42:41.874Z,103353.91
2023-01-22T02:45:08.833Z,103346.06
2023-01-22T02:47:36.238Z,103338.22
2023-01-22T02:50:02.911Z,103346.88
2023-01-22T02:52:29.670Z,103345.06
2023-01-22T02:54:56.412Z,103343.44
2023-01-22T02:57:22.825Z,103340.69
2023-01-22T02:59:49.308Z,103341.78
2023-01-22T03:02:15.755Z,103332.97
2023-01-22T03:04:42.169Z,103339.84
2023-01-22T03:07:08.608Z,103342.47
2023-01-22T03:09:34.997Z,103339.03
2023-01-22T03:12:01.407Z,103319.84
2023-01-22T03:14:46.283Z,103332.84
2023-01-22T03:17:31.070Z,103332.00
2023-01-22T03:20:16.125Z,103331.19
2023-01-22T03:22:42.680Z,103338.22
2023-01-22T03:25:09.283Z,103337.22
2023-01-22T03:27:35.711Z,103328.56
2023-01-22T03:30:02.124Z,103325.00
2023-01-22T03:32:28.573Z,103325.81
2023-01-22T03:34:54.931Z,103316.47
2023-01-22T03:37:21.391Z,103320.72
2023-01-22T03:39:48.059Z,103332.84
2023-01-22T03:42:14.464Z,103331.19
2023-01-22T03:44:40.835Z,103337.22
2023-01-22T03:47:07.186Z,103330.38
2023-01-22T03:49:33.568Z,103328.69
2023-01-22T03:51:59.915Z,103333.94
2023-01-22T03:54:26.380Z,103344.38
2023-01-22T03:56:52.773Z,103339.28
2023-01-22T03:59:19.161Z,103339.16
2023-01-22T04:01:45.597Z,103340.94
2023-01-22T04:04:11.965Z,103341.78
2023-01-22T04:06:38.385Z,103344.38
2023-01-22T04:09:04.762Z,103342.63
2023-01-22T04:11:31.250Z,103337.53
2023-01-22T04:13:57.685Z,103332.16
2023-01-22T04:16:24.273Z,103326.06
2023-01-22T04:18:50.703Z,103333.09
2023-01-22T04:21:17.123Z,103326.06
2023-01-22T04:23:43.491Z,103321.84
2023-01-22T04:26:09.920Z,103329.69
2023-01-22T04:28:36.339Z,103325.38
2023-01-22T04:31:04.590Z,103319.34
2023-01-22T04:33:31.419Z,103328.00
2023-01-22T04:35:58.202Z,103320.16
2023-01-22T04:38:24.717Z,103329.81
2023-01-22T04:40:51.186Z,103331.44
2023-01-22T04:43:17.670Z,103328.00
2023-01-22T04:45:44.063Z,103328.81
2023-01-22T04:48:11.150Z,103323.03
2023-01-22T04:50:37.614Z,103335.03
2023-01-22T04:53:04.951Z,103325.25
2023-01-22T04:55:31.316Z,103330.63
2023-01-22T04:57:58.916Z,103332.41
2023-01-22T05:00:26.117Z,103329.81
2023-01-22T05:02:56.493Z,103330.06
2023-01-22T05:05:22.969Z,103313.38
2023-01-22T05:07:49.372Z,103324.56
2023-01-22T05:10:16.291Z,103321.97
2023-01-22T05:12:42.844Z,103326.22
2023-01-22T05:15:23.072Z,103332.28
2023-01-22T05:17:50.243Z,103331.31
2023-01-22T05:20:17.233Z,103338.09
2023-01-22T05:22:44.337Z,103335.31
2023-01-22T05:25:10.710Z,103332.56
2023-01-22T05:27:37.101Z,103331.47
2023-01-22T05:30:05.360Z,103340.03
2023-01-22T05:32:31.759Z,103345.94
2023-01-22T05:34:58.118Z,103352.53
2023-01-22T05:37:24.483Z,103353.09
2023-01-22T05:39:50.905Z,103354.69
2023-01-22T05:42:17.329Z,103345.72
2023-01-22T05:44:43.808Z,103355.78
2023-01-22T05:47:12.481Z,103344.34
2023-01-22T05:49:38.979Z,103357.16
2023-01-22T05:52:05.393Z,103349.06
2023-01-22T05:54:31.800Z,103351.38
2023-01-22T05:56:58.255Z,103348.63
2023-01-22T05:59:24.673Z,103353.31
2023-01-22T06:01:51.092Z,103352.78
2023-01-22T06:04:17.464Z,103349.03
2023-01-22T06:06:43.887Z,103353.19
2023-01-22T06:09:12.889Z,103349.47
2023-01-22T06:11:39.436Z,103352.63
2023-01-22T06:14:06.206Z,103346.28
2023-01-22T06:16:32.579Z,103355.53
2023-01-22T06:18:58.947Z,103353.47
2023-01-22T06:21:25.411Z,103359.25
2023-01-22T06:23:51.852Z,103365.88
2023-01-22T06:26:18.260Z,103359.50
2023-01-22T06:28:44.744Z,103363.53
2023-01-22T06:31:11.287Z,103360.59
2023-01-22T06:33:38.301Z,103365.44
2023-01-22T06:36:05.367Z,103358.13
2023-01-22T06:38:31.913Z,103357.00
2023-01-22T06:41:00.021Z,103361.16
2023-01-22T06:43:27.312Z,103360.72
2023-01-22T06:45:54.525Z,103356.03
2023-01-22T06:48:20.898Z,103359.19
2023-01-22T06:50:47.349Z,103357.13
2023-01-22T06:53:14.151Z,103361.28
2023-01-22T06:55:40.562Z,103357.38
2023-01-22T06:58:07.012Z,103358.78
2023-01-22T07:00:33.439Z,103356.84
2023-01-22T07:02:59.954Z,103356.56
2023-01-22T07:05:27.327Z,103359.72
2023-01-22T07:07:55.075Z,103358.59
2023-01-22T07:10:22.032Z,103363.44
2023-01-22T07:12:49.751Z,103364.94
2023-01-22T07:15:16.352Z,103357.47
2023-01-22T07:17:42.743Z,103360.75
2023-01-22T07:20:09.922Z,103359.50
2023-01-22T07:22:36.358Z,103364.59
2023-01-22T07:25:03.101Z,103362.66
2023-01-22T07:27:32.418Z,103355.50
2023-01-22T07:29:58.810Z,103359.47
2023-01-22T07:32:25.195Z,103342.66
2023-01-22T07:34:51.765Z,103363.16
2023-01-22T07:37:18.220Z,103363.72
2023-01-22T07:39:44.610Z,103381.94
2023-01-22T07:42:12.433Z,103370.38
2023-01-22T07:44:40.478Z,103388.38
2023-01-22T07:47:06.918Z,103382.16
2023-01-22T07:49:33.368Z,103386.31
2023-01-22T07:51:59.868Z,103384.34
2023-01-22T07:54:26.311Z,103387.50
2023-01-22T07:56:52.686Z,103389.16
2023-01-22T07:59:19.063Z,103389.69
2023-01-22T08:01:45.504Z,103387.72
2023-01-22T08:04:11.912Z,103385.81
2023-01-22T08:06:38.301Z,103385.63
2023-01-22T08:09:05.970Z,103397.66
2023-01-22T08:11:32.394Z,103401.78
2023-01-22T08:13:58.793Z,103394.72
2023-01-22T08:16:25.263Z,103397.06
2023-01-22T08:18:51.649Z,103396.78
2023-01-22T08:21:18.080Z,103388.09
2023-01-22T08:23:48.149Z,103387.78
2023-01-22T08:26:15.526Z,103383.19
2023-01-22T08:28:41.971Z,103383.91
2023-01-22T08:31:16.364Z,103391.47
2023-01-22T08:33:49.264Z,103389.69
2023-01-22T08:36:15.742Z,103395.47
2023-01-22T08:38:42.167Z,103379.31
2023-01-22T08:41:08.575Z,103391.72
2023-01-22T08:43:34.989Z,103395.03
2023-01-22T08:46:01.558Z,103393.06
2023-01-22T08:48:27.920Z,103400.81
2023-01-22T08:50:54.314Z,103398.84
2023-01-22T08:53:20.753Z,103401.34
2023-01-22T08:55:50.277Z,103397.06
2023-01-22T08:58:16.707Z,103397.56
2023-01-22T09:00:44.465Z,103397.44
2023-01-22T09:03:10.861Z,103402.41
2023-01-22T09:05:39.808Z,103404.19
2023-01-22T09:08:06.929Z,103410.81
2023-01-22T09:10:33.487Z,103407.19
2023-01-22T09:13:00.546Z,103410.66
2023-01-22T09:15:27.296Z,103410.50
2023-01-22T09:17:53.696Z,103412.97
2023-01-22T09:20:20.404Z,103415.59
2023-01-22T09:22:48.245Z,103409.38
2023-01-22T09:25:15.487Z,103407.41
2023-01-22T09:27:41.932Z,103402.16
2023-01-22T09:30:09.624Z,103407.28
2023-01-22T09:32:36.440Z,103409.75
2023-01-22T09:35:02.883Z,103411.56
2023-01-22T09:37:29.304Z,103414.00
2023-01-22T09:39:55.787Z,103416.50
2023-01-22T09:42:26.324Z,103412.22
2023-01-22T09:44:55.757Z,103405.16
2023-01-22T09:47:28.994Z,103408.09
2023-01-22T09:50:08.077Z,103410.84
2023-01-22T09:52:37.291Z,103409.59
2023-01-22T09:55:09.426Z,103401.13
2023-01-22T09:57:35.820Z,103417.03
2023-01-22T10:00:03.488Z,103418.84
2023-01-22T10:02:42.833Z,103420.25
2023-01-22T10:05:35.596Z,103426.19
2023-01-22T10:08:47.221Z,103422.22
2023-01-22T10:11:13.609Z,103429.34
2023-01-22T10:13:40.672Z,103422.13
2023-01-22T10:16:07.439Z,103424.75
2023-01-22T10:18:42.152Z,103425.03
2023-01-22T10:21:21.088Z,103429.94
2023-01-22T10:23:50.024Z,103402.47
2023-01-22T10:26:17.782Z,103420.63
2023-01-22T10:28:45.902Z,103425.91
2023-01-22T10:31:30.852Z,103426.63
2023-01-22T10:34:01.830Z,103424.91
2023-01-22T10:36:29.501Z,103427.38
2023-01-22T10:39:13.330Z,103430.75
2023-01-22T10:41:40.914Z,103434.97
2023-01-22T10:44:09.415Z,103429.72
2023-01-22T10:46:35.934Z,103429.56
2023-01-22T10:49:05.527Z,103432.19
2023-01-22T10:51:34.580Z,103424.38
2023-01-22T10:54:01.067Z,103424.09
2023-01-22T10:56:31.731Z,103426.56
2023-01-22T10:59:01.908Z,103430.00
2023-01-22T11:01:34.991Z,103428.38
2023-01-22T11:04:21.523Z,103422.06
2023-01-22T11:06:50.899Z,103422.13
2023-01-22T11:09:25.181Z,103419.78
2023-01-22T11:12:04.392Z,103413.88
2023-01-22T11:14:35.489Z,103409.47
2023-01-22T11:17:20.700Z,103405.59
2023-01-22T11:20:17.944Z,103411.84
2023-01-22T11:22:48.504Z,103411.78
2023-01-22T11:25:15.067Z,103402.78
2023-01-22T11:28:12.308Z,103396.75
2023-01-22T11:30:53.498Z,103392.56
2023-01-22T11:33:32.012Z,103388.44
2023-01-22T11:36:19.686Z,103385.97
2023-01-22T11:39:14.634Z,103386.88
2023-01-22T11:41:59.476Z,103385.31
2023-01-22T11:44:50.262Z,103387.22
2023-01-22T11:47:27.530Z,103383.88
2023-01-22T11:50:15.695Z,103379.53
2023-01-22T11:52:53.227Z,103371.19
2023-01-22T11:55:24.927Z,103368.25
2023-01-22T11:58:17.486Z,103369.06
2023-01-22T12:00:58.974Z,103361.66
2023-01-22T12:03:34.491Z,103356.59
2023-01-22T12:06:20.784Z,103358.03
2023-01-22T12:08:56.117Z,103358.56
2023-01-22T12:11:47.322Z,103356.94
2023-01-22T12:14:32.091Z,103350.84
2023-01-22T12:17:10.727Z,103354.44
2023-01-22T12:20:14.163Z,103360.81
2023-01-22T12:23:01.276Z,103356.56
2023-01-22T12:25:39.396Z,103359.72
2023-01-22T12:28:14.277Z,103357.91
2023-01-22T12:30:46.862Z,103365.63
2023-01-22T12:33:15.859Z,103351.06
2023-01-22T12:35:42.478Z,103352.53
2023-01-22T12:38:24.797Z,103356.94
2023-01-22T12:41:11.242Z,103359.38
2023-01-22T12:43:50.949Z,103339.09
2023-01-22T12:46:45.050Z,103356.94
2023-01-22T12:49:16.273Z,103357.47
2023-01-22T12:51:48.351Z,103353.47
2023-01-22T12:54:30.222Z,103363.59
2023-01-22T12:57:20.620Z,103360.97
2023-01-22T12:59:51.608Z,103358.56
2023-01-22T13:02:22.727Z,103359.38
2023-01-22T13:04:49.229Z,103367.25
2023-01-22T13:07:36.079Z,103357.13
2023-01-22T13:10:29.299Z,103349.13
2023-01-22T13:12:58.970Z,103350.03
2023-01-22T13:15:32.367Z,103343.06
2023-01-22T13:18:27.773Z,103357.13
2023-01-22T13:21:02.823Z,103357.91
2023-01-22T13:23:34.584Z,103362.63
2023-01-22T13:26:01.485Z,103356.22
2023-01-22T13:28:28.187Z,103355.28
2023-01-22T13:31:05.084Z,103358.34
2023-01-22T13:33:31.973Z,103359.72
2023-01-22T13:35:58.539Z,103364.13
2023-01-22T13:38:30.851Z,103360.81
2023-01-22T13:41:05.813Z,103356.69
2023-01-22T13:43:33.907Z,103341.72
2023-01-22T13:46:00.896Z,103364.97
2023-01-22T13:48:27.469Z,103362.47
2023-01-22T13:51:05.398Z,103371.31
2023-01-22T13:53:41.893Z,103372.31
2023-01-22T13:56:15.580Z,103371.78
2023-01-22T13:58:48.209Z,103372.16
2023-01-22T14:01:35.861Z,103371.41
2023-01-22T14:04:07.331Z,103341.78
2023-01-22T14:06:49.303Z,103372.09
2023-01-22T14:09:25.140Z,103371.69
2023-01-22T14:11:51.660Z,103375.38
2023-01-22T14:14:19.571Z,103371.66
2023-01-22T14:16:46.115Z,103354.47
2023-01-22T14:19:12.971Z,103376.72
2023-01-22T14:21:39.526Z,103374.09
2023-01-22T14:24:06.416Z,103372.47
2023-01-22T14:26:33.061Z,103369.84
2023-01-22T14:28:59.495Z,103372.47
2023-01-22T14:31:25.933Z,103366.22
2023-01-22T14:33:52.453Z,103375.09
2023-01-22T14:36:20.281Z,103380.47
2023-01-22T14:38:48.560Z,103379.53
2023-01-22T14:41:14.970Z,103373.75
2023-01-22T14:43:41.343Z,103381.31
2023-01-22T14:46:08.503Z,103380.47
2023-01-22T14:48:34.965Z,103386.88
2023-01-22T14:51:07.737Z,103395.84
2023-01-22T14:53:34.895Z,103391.94
2023-01-22T14:56:01.375Z,103393.63
2023-01-22T14:58:27.924Z,103388.38
2023-01-22T15:00:54.400Z,103386.88
2023-01-22T15:03:20.835Z,103389.50
2023-01-22T15:05:51.042Z,103394.91
2023-01-22T15:08:17.472Z,103400.81
2023-01-22T15:10:43.901Z,103396.38
2023-01-22T15:13:10.352Z,103393.91
2023-01-22T15:15:36.721Z,103387.84
2023-01-22T15:18:03.144Z,103396.38
2023-01-22T15:20:29.580Z,103397.38
2023-01-22T15:22:55.956Z,103400.97
2023-01-22T15:25:22.322Z,103394.91
2023-01-22T15:27:48.736Z,103408.84
2023-01-22T15:30:15.440Z,103405.25
2023-01-22T15:32:41.875Z,103394.38
2023-01-22T15:35:08.692Z,103403.44
2023-01-22T15:37:35.063Z,103403.44
2023-01-22T15:40:02.143Z,103397.38
2023-01-22T15:42:28.625Z,103394.75
2023-01-22T15:44:55.044Z,103402.63
2023-01-22T15:47:21.465Z,103410.34
2023-01-22T15:49:47.841Z,103407.88
2023-01-22T15:52:14.207Z,103405.25
2023-01-22T15:54:40.608Z,103399.63
2023-01-22T15:57:06.976Z,103406.22
2023-01-22T15:59:33.536Z,103406.22
2023-01-22T16:01:59.939Z,103408.69
2023-01-22T16:04:26.310Z,103409.66
2023-01-22T16:06:52.860Z,103407.19
2023-01-22T16:09:19.323Z,103412.44
2023-01-22T16:11:45.700Z,103408.03
2023-01-22T16:14:12.112Z,103409.66
2023-01-22T16:16:38.581Z,103402.78
2023-01-22T16:19:07.574Z,103403.06
2023-01-22T16:21:34.155Z,103405.41
2023-01-22T16:24:01.553Z,103378.31
2023-01-22T16:26:30.524Z,103407.34
2023-01-22T16:28:59.106Z,103409.81
2023-01-22T16:31:31.834Z,103371.16
2023-01-22T16:34:18.307Z,103393.53
2023-01-22T16:36:45.097Z,103411.75
2023-01-22T16:39:19.887Z,103409.59
2023-01-22T16:41:48.598Z,103409.97
2023-01-22T16:44:17.799Z,103406.50
2023-01-22T16:46:49.469Z,103416.06
2023-01-22T16:49:19.084Z,103424.22
2023-01-22T16:51:47.425Z,103435.41
2023-01-22T16:54:18.029Z,103423.84
2023-01-22T16:56:44.442Z,103426.84
2023-01-22T16:59:11.263Z,103417.09
2023-01-22T17:01:40.864Z,103437.06
2023-01-22T17:04:07.759Z,103430.00
2023-01-22T17:06:40.400Z,103433.91
2023-01-22T17:09:08.228Z,103436.06
2023-01-22T17:11:34.607Z,103435.09
2023-01-22T17:14:01.081Z,103432.47
2023-01-22T17:16:27.602Z,103437.72
2023-01-22T17:18:54.826Z,103434.44
2023-01-22T17:21:21.546Z,103445.47
2023-01-22T17:23:47.940Z,103447.28
2023-01-22T17:26:16.308Z,103449.06
2023-01-22T17:28:42.946Z,103444.66
2023-01-22T17:31:17.739Z,103453.78
2023-01-22T17:33:44.486Z,103446.44
2023-01-22T17:36:13.248Z,103439.53
2023-01-22T17:38:39.801Z,103447.28
2023-01-22T17:41:15.703Z,103447.03
2023-01-22T17:43:43.659Z,103447.41
2023-01-22T17:46:15.457Z,103453.63
2023-01-22T17:48:42.844Z,103447.41
2023-01-22T17:51:15.627Z,103439.81
2023-01-22T17:53:43.374Z,103439.69
2023-01-22T17:56:22.217Z,103441.41
2023-01-22T17:58:50.981Z,103452.13
2023-01-22T18:01:19.394Z,103454.91
2023-01-22T18:03:46.711Z,103455.72
2023-01-22T18:06:13.809Z,103454.09
2023-01-22T18:08:42.148Z,103448.84
2023-01-22T18:11:10.802Z,103454.38
2023-01-22T18:13:38.191Z,103455.34
2023-01-22T18:16:06.034Z,103463.38
2023-01-22T18:18:32.495Z,103459.09
2023-01-22T18:20:59.123Z,103456.75
2023-01-22T18:23:25.701Z,103461.34
2023-01-22T18:25:56.174Z,103461.19
2023-01-22T18:28:25.215Z,103471.16
2023-01-22T18:30:52.410Z,103475.59
2023-01-22T18:33:20.582Z,103466.66
2023-01-22T18:35:49.289Z,103475.19
2023-01-22T18:38:16.462Z,103477.00
2023-01-22T18:40:42.816Z,103475.44
2023-01-22T18:43:10.076Z,103481.84
2023-01-22T18:45:36.953Z,103479.34
2023-01-22T18:48:04.489Z,103478.00
2023-01-22T18:50:30.937Z,103481.56
2023-01-22T18:52:57.773Z,103479.09
2023-01-22T18:55:24.358Z,103483.66
2023-01-22T18:57:54.395Z,103476.91
2023-01-22T19:00:20.915Z,103475.38
2023-01-22T19:02:55.146Z,103483.31
2023-01-22T19:05:22.630Z,103476.81
2023-01-22T19:07:49.101Z,103488.41
2023-01-22T19:10:16.620Z,103481.50
2023-01-22T19:12:43.069Z,103487.88
2023-01-22T19:15:10.368Z,103477.66
2023-01-22T19:17:36.788Z,103485.00
2023-01-22T19:20:07.522Z,103485.13
2023-01-22T19:22:34.839Z,103480.19
2023-01-22T19:25:02.769Z,103468.06
2023-01-22T19:27:30.094Z,103478.13
2023-01-22T19:29:56.603Z,103478.25
2023-01-22T19:32:27.728Z,103467.41
2023-01-22T19:34:54.967Z,103470.16
2023-01-22T19:37:21.427Z,103471.25
2023-01-22T19:39:47.892Z,103470.56
2023-01-22T19:42:15.350Z,103467.28
2023-01-22T19:44:42.873Z,103467.53
2023-01-22T19:47:10.874Z,103451.44
2023-01-22T19:49:37.428Z,103481.78
2023-01-22T19:52:03.859Z,103475.84
2023-01-22T19:54:30.306Z,103482.03
2023-01-22T19:56:56.755Z,103478.88
2023-01-22T19:59:23.929Z,103484.13
2023-01-22T20:01:51.015Z,103474.38
2023-01-22T20:04:26.842Z,103491.75
2023-01-22T20:07:00.566Z,103499.44
2023-01-22T20:09:27.072Z,103486.78
2023-01-22T20:11:54.933Z,103473.97
2023-01-22T20:14:22.553Z,103492.28
2023-01-22T20:16:49.307Z,103501.13
2023-01-22T20:19:16.140Z,103501.25
2023-01-22T20:21:42.550Z,103505.69
2023-01-22T20:24:09.340Z,103500.44
2023-01-22T20:26:35.793Z,103497.97
2023-01-22T20:29:02.263Z,103503.22
2023-01-22T20:31:28.698Z,103499.72
2023-01-22T20:33:56.898Z,103499.06
2023-01-22T20:36:25.439Z,103501.00
2023-01-22T20:38:53.094Z,103500.03
2023-01-22T20:41:20.136Z,103500.84
2023-01-22T20:43:46.644Z,103490.50
2023-01-22T20:46:18.521Z,103498.81
2023-01-22T20:48:45.463Z,103492.44
2023-01-22T20:51:17.562Z,103509.13
2023-01-22T20:53:45.047Z,103503.88
2023-01-22T20:56:14.351Z,103507.59
2023-01-22T20:58:41.553Z,103503.16
2023-01-22T21:01:15.589Z,103512.13
2023-01-22T21:03:43.358Z,103512.97
2023-01-22T21:06:13.908Z,103507.03
2023-01-22T21:08:41.375Z,103524.41
2023-01-22T21:11:11.620Z,103513.53
2023-01-22T21:13:38.132Z,103516.81
2023-01-22T21:16:09.862Z,103521.50
2023-01-22T21:18:37.544Z,103525.63
2023-01-22T21:21:04.910Z,103525.63
2023-01-22T21:23:31.379Z,103529.09
2023-01-22T21:26:03.439Z,103525.25
2023-01-22T21:28:29.881Z,103526.63
2023-01-22T21:30:56.559Z,103527.56
2023-01-22T21:33:23.069Z,103518.06
2023-01-22T21:35:49.764Z,103521.66
2023-01-22T21:38:16.248Z,103522.63
2023-01-22T21:40:42.713Z,103532.25
2023-01-22T21:43:31.780Z,103528.13
2023-01-22T21:46:17.440Z,103528.13
2023-01-22T21:48:43.857Z,103536.00
2023-01-22T21:51:10.292Z,103534.19
2023-01-22T21:53:36.696Z,103530.88
2023-01-22T21:56:03.111Z,103539.44
2023-01-22T21:58:29.554Z,103544.81
2023-01-22T22:01:03.698Z,103536.81
2023-01-22T22:03:32.679Z,103538.75
2023-01-22T22:06:02.306Z,103541.38
2023-01-22T22:08:29.179Z,103536.25
2023-01-22T22:10:56.004Z,103540.53
2023-01-22T22:13:22.458Z,103542.47
2023-01-22T22:15:49.410Z,103540.81
2023-01-22T22:18:15.813Z,103546.03
2023-01-22T22:20:42.357Z,103548.78
2023-01-22T22:23:08.881Z,103557.50
2023-01-22T22:25:35.590Z,103555.84
2023-01-22T22:28:01.984Z,103556.78
2023-01-22T22:30:28.419Z,103565.63
2023-01-22T22:32:54.861Z,103565.63
2023-01-22T22:35:21.839Z,103563.81
2023-01-22T22:37:48.355Z,103555.16
2023-01-22T22:40:14.849Z,103562.19
2023-01-22T22:42:41.276Z,103564.66
2023-01-22T22:45:08.984Z,103562.03
2023-01-22T22:47:36.271Z,103557.63
2023-01-22T22:50:04.612Z,103566.44
2023-01-22T22:52:33.477Z,103559.69
2023-01-22T22:54:59.910Z,103562.19
2023-01-22T22:57:26.316Z,103564.66
2023-01-22T22:59:52.785Z,103567.13
2023-01-22T23:02:20.955Z,103568.13
2023-01-22T23:04:47.484Z,103566.06
2023-01-22T23:07:13.989Z,103560.81
2023-01-22T23:09:40.433Z,103565.06
2023-01-22T23:12:07.347Z,103567.56
2023-01-22T23:14:33.808Z,103564.13
2023-01-22T23:17:00.371Z,103565.63
2023-01-22T23:19:26.940Z,103568.25
2023-01-22T23:21:58.330Z,103565.91
2023-01-22T23:24:25.177Z,103561.22
2023-01-22T23:26:52.091Z,103565.50
2023-01-22T23:29:20.974Z,103565.63
2023-01-22T23:31:48.074Z,103568.94
2023-01-22T23:34:17.500Z,103558.03
2023-01-22T23:36:45.331Z,103572.41
2023-01-22T23:39:17.558Z,103576.94
2023-01-22T23:41:44.421Z,103566.31
2023-01-22T23:44:11.639Z,103571.44
2023-01-22T23:46:38.723Z,103571.56
2023-01-22T23:49:05.509Z,103577.66
2023-01-22T23:51:32.024Z,103559.97
2023-01-22T23:53:58.619Z,103574.06
2023-01-22T23:56:26.716Z,103575.03
2023-01-22T23:58:54.696Z,103573.34
